Latest Weather Observations for Cape Nelson

IDV60801

Issued at 9:31 pm EDT Wednesday 10 February 2016 (issued every 30 minutes, with the page automatically refreshed every 10 minutes)

About weather observations | Map of weather stations | Latest weather observations for VIC | Other Formats
Station Details ID: 090184 Name: CAPE NELSON LIGHTHOUSE Lat: -38.43 Lon: 141.54 Height: 45.4 m
Data from the previous 72 hours. | See also: Recent months at Cape Nelson
Date/Time
EDT
Temp
°C
App
Temp
°C
Dew
Point
Rel
Hum
%
Delta-T
°C
Wind Press
QNH
hPa
Press
MSL
hPa
Rain
since 9 am
mm
Dir
 
Spd
km/h
Gust
km/h
Spd
kts
Gust
kts
10/09:30pm 17.8 15.0 13.1 74 2.6 S 20 28 11 15 1017.1 1017.0 0.0
10/09:00pm 17.9 16.4 13.0 73 2.7 S 13 17 7 9 1017.0 1016.9 0.0
10/08:30pm 17.9 16.2 12.6 71 3.0 S 13 17 7 9 1016.9 1016.8 0.0
10/08:00pm 18.8 16.4 12.8 68 3.4 S 17 22 9 12 1016.8 1016.7 0.0
10/07:30pm 18.9 17.3 12.9 68 3.4 S 13 20 7 11 1016.5 1016.4 0.0
10/07:00pm 20.1 18.0 13.6 66 3.7 SSW 17 20 9 11 1016.3 1016.2 0.0
10/06:30pm 19.6 17.7 13.1 66 3.7 S 15 20 8 11 1016.2 1016.1 0.0
10/06:00pm 18.9 16.1 12.6 67 3.5 S 19 24 10 13 1016.1 1016.0 0.0
10/05:30pm 19.9 18.1 13.4 66 3.7 S 15 22 8 12 1015.9 1015.8 0.0
10/05:00pm 19.8 17.7 12.3 62 4.2 SSW 15 19 8 10 1015.9 1015.8 0.0
10/04:30pm 20.1 18.1 12.6 62 4.2 SSW 15 20 8 11 1016.0 1015.9 0.0
10/04:00pm 20.9 19.2 12.6 59 4.7 S 13 17 7 9 1016.1 1016.0 0.0
10/03:30pm 20.3 18.5 12.0 59 4.6 SSW 13 19 7 10 1016.4 1016.3 0.0
10/03:00pm 21.2 20.4 12.9 59 4.7 SSW 9 13 5 7 1016.4 1016.3 0.0
10/02:30pm 21.4 20.4 12.3 56 5.1 S 9 15 5 8 1016.5 1016.4 0.0
10/02:00pm 20.8 19.4 12.2 58 4.8 S 11 13 6 7 1016.8 1016.7 0.0
10/01:30pm 21.6 20.3 12.5 56 5.2 SSE 11 15 6 8 1017.0 1016.9 0.0
10/01:00pm 21.3 20.0 12.4 57 5.0 SSE 11 15 6 8 1017.0 1016.9 0.0
10/12:30pm 21.1 19.7 12.3 57 5.0 SE 11 13 6 7 1017.2 1017.1 0.0
10/12:00pm 20.9 19.8 12.1 57 4.9 SE 9 13 5 7 1017.4 1017.3 0.0
10/11:30am 20.7 19.4 12.4 59 4.7 SE 11 15 6 8 1017.5 1017.4 0.0
10/11:00am 19.4 17.8 12.7 65 3.8 SSE 13 19 7 10 1017.7 1017.6 0.0
10/10:30am 20.0 17.9 12.5 62 4.2 SSE 15 20 8 11 1017.8 1017.7 0.0
10/10:00am 18.7 16.9 12.0 65 3.7 SSE 13 19 7 10 1017.7 1017.6 0.0
10/09:30am 17.9 15.8 12.4 70 3.1 SSE 15 20 8 11 1017.5 1017.4 0.0
10/09:00am 17.4 14.8 12.1 71 2.9 SSE 17 22 9 12 1017.5 1017.4 0.0
10/08:30am 17.9 15.9 12.6 71 3.0 SE 15 19 8 10 1016.9 1016.8 0.0
10/08:00am 16.7 15.3 12.3 75 2.4 SE 11 17 6 9 1016.6 1016.5 0.0
10/07:30am 16.3 14.9 12.1 76 2.3 SE 11 19 6 10 1016.5 1016.4 0.0
10/07:00am 16.0 13.8 12.0 77 2.2 SE 15 19 8 10 1016.3 1016.2 0.0
10/06:30am 15.7 14.6 11.9 78 2.1 SE 9 17 5 9 1015.9 1015.8 0.0
10/06:00am 15.8 14.7 12.0 78 2.1 SE 9 17 5 9 1015.9 1015.8 0.0
10/05:30am 16.0 14.5 12.0 77 2.2 ESE 11 17 6 9 1015.9 1015.8 0.0
10/05:00am 16.1 14.2 11.9 76 2.3 SE 13 19 7 10 1016.0 1015.9 0.0
10/04:30am 16.5 13.5 12.1 75 2.4 SE 19 24 10 13 1016.1 1016.0 0.0
10/04:00am 16.4 14.2 12.2 76 2.3 SSE 15 20 8 11 1016.1 1016.0 0.0
10/03:30am 16.4 14.5 11.8 74 2.5 ESE 13 20 7 11 1016.2 1016.1 0.0
10/03:00am 16.5 15.1 12.3 76 2.3 ESE 11 17 6 9 1016.5 1016.4 0.0
10/02:30am 16.5 14.8 12.3 76 2.3 SE 13 19 7 10 1016.8 1016.7 0.0
10/02:00am 16.7 14.6 12.3 75 2.4 SE 15 20 8 11 1017.2 1017.1 0.0
10/01:30am 16.8 14.4 12.5 76 2.4 SE 17 24 9 13 1017.6 1017.5 0.0
10/01:00am 16.8 14.7 12.5 76 2.4 SE 15 24 8 13 1017.7 1017.6 0.0
10/12:30am 16.6 13.9 12.8 78 2.1 SE 19 24 10 13 1017.8 1017.7 0.0
10/12:00am 16.5 13.7 12.5 77 2.2 SE 19 26 10 14 1018.0 1017.9 0.0
 
Date/Time
EDT
Temp
°C
App
Temp
°C
Dew
Point
Rel
Hum
%
Delta-T
°C
Wind Press
QNH
hPa
Press
MSL
hPa
Rain
since 9 am
mm
Dir
 
Spd
km/h
Gust
km/h
Spd
kts
Gust
kts
09/11:30pm 16.5 13.7 12.5 77 2.2 SE 19 26 10 14 1018.3 1018.2 0.0
09/11:00pm 16.6 13.8 12.6 77 2.2 SE 19 22 10 12 1018.5 1018.4 0.0
09/10:30pm 16.6 13.8 12.6 77 2.2 SE 19 24 10 13 1018.7 1018.6 0.0
09/10:00pm 16.6 13.9 12.8 78 2.1 SE 19 24 10 13 1018.7 1018.6 0.0
09/09:30pm 16.6 14.6 12.6 77 2.2 SE 15 22 8 12 1018.4 1018.3 0.0
09/09:00pm 16.8 14.4 12.5 76 2.4 SE 17 22 9 12 1018.7 1018.6 0.0
09/08:30pm 17.0 14.4 12.1 73 2.7 SSE 17 20 9 11 1018.8 1018.7 0.0
09/08:00pm 17.8 15.4 12.5 71 2.9 SSE 17 22 9 12 1018.8 1018.7 0.0
09/07:30pm 18.3 15.5 12.5 69 3.2 SSE 19 22 10 12 1018.8 1018.7 0.0
09/07:00pm 18.9 16.2 12.9 68 3.4 SSE 19 22 10 12 1018.8 1018.7 0.0
09/06:30pm 19.2 16.3 12.9 67 3.6 SSE 20 26 11 14 1018.8 1018.7 0.0
09/06:00pm 19.6 16.8 12.6 64 3.9 SSE 19 24 10 13 1018.8 1018.7 0.0
09/05:30pm 20.3 18.0 13.0 63 4.2 SSE 17 22 9 12 1018.9 1018.8 0.0
09/05:00pm 20.7 18.5 13.2 62 4.3 SSE 17 22 9 12 1019.4 1019.3 0.0
09/04:30pm 21.4 19.4 13.8 62 4.4 SSE 17 20 9 11 1019.5 1019.4 0.0
09/04:00pm 21.4 19.5 13.1 59 4.7 SE 15 20 8 11 1019.9 1019.8 0.0
09/03:30pm 21.6 19.6 12.7 57 5.1 SE 15 19 8 10 1020.1 1020.0 0.0
09/03:00pm 21.4 19.4 12.8 58 4.9 SE 15 20 8 11 1020.3 1020.2 0.0
09/02:30pm 21.5 19.2 12.9 58 4.9 SE 17 20 9 11 1020.5 1020.4 0.0
09/02:00pm 22.0 20.2 13.4 58 5.0 ESE 15 20 8 11 1020.8 1020.7 0.0
09/01:30pm 21.7 19.4 13.1 58 4.9 SE 17 22 9 12 1021.2 1021.1 0.0
09/01:00pm 21.1 18.7 12.8 59 4.7 ESE 17 20 9 11 1021.4 1021.3 0.0
09/12:30pm 20.8 18.1 12.8 60 4.5 ESE 19 24 10 13 1021.7 1021.6 0.0
09/12:00pm 20.6 18.2 12.8 61 4.4 ESE 17 26 9 14 1021.9 1021.8 0.0
09/11:30am 20.9 17.5 12.6 59 4.7 E 22 28 12 15 1022.1 1022.0 0.0
09/11:00am 20.2 17.2 12.7 62 4.2 E 20 28 11 15 1022.2 1022.1 0.0
09/10:30am 19.3 17.3 12.8 66 3.7 E 15 20 8 11 1022.4 1022.3 0.0
09/10:00am 18.4 15.1 11.7 65 3.7 ESE 20 30 11 16 1022.5 1022.4 0.0
09/09:30am 18.4 14.5 12.2 67 3.4 E 24 32 13 17 1022.6 1022.5 0.0
09/09:00am 17.6 14.5 12.3 71 2.9 E 20 28 11 15 1022.6 1022.5 0.0
09/08:30am 17.3 14.8 12.4 73 2.7 E 17 22 9 12 1022.6 1022.5 0.0
09/08:00am 17.0 14.4 12.1 73 2.7 E 17 26 9 14 1022.5 1022.4 0.0
09/07:30am 16.8 14.2 11.9 73 2.7 SE 17 22 9 12 1022.4 1022.3 0.0
09/07:00am 16.7 14.4 11.8 73 2.7 ESE 15 26 8 14 1022.5 1022.4 0.0
09/06:30am 16.8 13.8 12.1 74 2.6 SE 19 24 10 13 1022.2 1022.1 0.0
09/06:00am 16.5 14.6 11.9 74 2.5 ESE 13 22 7 12 1022.0 1021.9 0.0
09/05:30am 16.7 13.8 12.3 75 2.4 SE 19 24 10 13 1021.9 1021.8 0.0
09/05:00am 16.7 14.6 12.3 75 2.4 ESE 15 24 8 13 1021.9 1021.8 0.0
09/04:30am 16.7 13.7 12.0 74 2.6 ESE 19 28 10 15 1022.0 1021.9 0.0
09/04:00am 16.9 14.4 12.4 75 2.5 SE 17 26 9 14 1022.1 1022.0 0.0
09/03:30am 16.8 14.3 12.3 75 2.5 ESE 17 28 9 15 1022.2 1022.1 0.0
09/03:00am 16.6 14.1 12.2 75 2.4 SE 17 28 9 15 1022.4 1022.3 0.0
09/02:30am 16.7 13.1 12.0 74 2.6 SE 22 33 12 18 1022.8 1022.7 0.0
09/02:00am 16.7 13.5 11.8 73 2.7 SE 20 33 11 18 1023.0 1022.9 0.0
09/01:30am 17.0 13.6 12.5 75 2.5 SE 22 32 12 17 1023.3 1023.2 0.0
09/01:00am 16.8 13.8 12.1 74 2.6 SE 19 26 10 14 1023.5 1023.4 0.0
09/12:30am 16.9 13.3 12.0 73 2.7 SE 22 32 12 17 1023.8 1023.7 0.0
09/12:00am 16.9 13.7 12.0 73 2.7 SE 20 30 11 16 1024.0 1023.9 0.0
 
Date/Time
EDT
Temp
°C
App
Temp
°C
Dew
Point
Rel
Hum
%
Delta-T
°C
Wind Press
QNH
hPa
Press
MSL
hPa
Rain
since 9 am
mm
Dir
 
Spd
km/h
Gust
km/h
Spd
kts
Gust
kts
08/11:30pm 17.1 13.2 12.0 72 2.8 SE 24 33 13 18 1024.3 1024.2 0.0
08/11:00pm 17.4 13.6 12.5 73 2.7 SE 24 35 13 19 1024.4 1024.3 0.0
08/10:30pm 17.3 13.5 12.4 73 2.7 SSE 24 32 13 17 1024.5 1024.4 0.0
08/10:00pm 17.4 13.2 12.3 72 2.8 SSE 26 32 14 17 1024.5 1024.4 0.0
08/09:30pm 17.4 13.2 12.5 73 2.7 SSE 26 33 14 18 1024.3 1024.2 0.0
08/09:00pm 17.5 13.6 13.2 76 2.4 SSE 26 33 14 18 1024.1 1024.0 0.0
08/08:30pm 17.8 14.7 13.5 76 2.4 SSE 22 30 12 16 1024.0 1023.9 0.0
08/08:00pm 18.2 14.1 13.9 76 2.4 S 28 35 15 19 1023.7 1023.6 0.0
08/07:30pm 18.8 15.2 14.1 74 2.7 S 26 33 14 18 1023.5 1023.4 0.0
08/07:00pm 19.0 15.8 14.3 74 2.7 S 24 30 13 16 1023.3 1023.2 0.0
08/06:30pm 19.1 15.8 13.9 72 3.0 S 24 30 13 16 1023.2 1023.1 0.0
08/06:00pm 19.2 16.0 14.2 73 2.9 S 24 28 13 15 1023.2 1023.1 0.0
08/05:30pm 20.8 18.4 13.7 64 4.1 S 19 24 10 13 1023.3 1023.2 0.0
08/05:00pm 20.9 18.4 13.4 62 4.3 S 19 24 10 13 1023.5 1023.4 0.0
08/04:30pm 20.8 18.7 13.5 63 4.2 S 17 22 9 12 1023.7 1023.6 0.0
08/04:00pm 21.1 18.9 13.3 61 4.5 S 17 22 9 12 1023.8 1023.7 0.0
08/03:30pm 21.3 19.2 13.7 62 4.4 S 17 22 9 12 1023.8 1023.7 0.0
08/03:00pm 21.6 20.3 13.8 61 4.5 S 13 19 7 10 1023.9 1023.8 0.0
08/02:30pm 21.2 19.5 13.6 62 4.4 S 15 20 8 11 1024.0 1023.9 0.0
08/02:00pm 21.4 19.5 13.1 59 4.7 SSE 15 20 8 11 1024.2 1024.1 0.0
08/01:30pm 21.6 20.0 12.7 57 5.1 SSE 13 17 7 9 1024.1 1024.0 0.0
08/01:00pm 21.6 20.1 13.0 58 4.9 SSE 13 19 7 10 1024.4 1024.3 0.0
08/12:30pm 21.2 19.4 13.4 61 4.5 SSE 15 20 8 11 1024.6 1024.5 0.0
08/12:00pm 20.1 18.4 12.3 61 4.4 SSE 13 19 7 10 1024.7 1024.6 0.0
08/11:30am 20.3 18.2 12.3 60 4.5 SE 15 20 8 11 1024.6 1024.5 0.0
08/11:00am 19.3 16.4 12.3 64 3.9 SSE 19 24 10 13 1024.5 1024.4 0.0
08/10:30am 18.7 16.1 12.0 65 3.7 SSE 17 24 9 13 1024.5 1024.4 0.0
08/10:00am 19.3 16.4 12.3 64 3.9 SSE 19 22 10 12 1024.3 1024.2 0.0
08/09:30am 17.7 14.5 11.9 69 3.2 SSE 20 26 11 14 1024.2 1024.1 0.0
08/09:00am 18.1 15.6 12.3 69 3.2 SSE 17 22 9 12 1024.0 1023.9 0.0
08/08:30am 18.3 16.2 12.3 68 3.3 SSE 15 19 8 10 1023.6 1023.5 0.0
08/08:00am 16.8 14.2 11.9 73 2.7 SSE 17 24 9 13 1023.3 1023.2 0.0
08/07:30am 16.7 14.0 11.8 73 2.7 SSE 17 24 9 13 1023.0 1022.9 0.0
08/07:00am 16.6 14.8 12.2 75 2.4 SSE 13 19 7 10 1022.6 1022.5 0.0
08/06:30am 16.5 13.5 11.9 74 2.5 S 19 24 10 13 1022.3 1022.2 0.0
08/06:00am 16.4 13.4 11.8 74 2.5 SE 19 26 10 14 1022.0 1021.9 0.0
08/05:30am 16.4 13.3 11.6 73 2.6 SSE 19 28 10 15 1021.9 1021.8 0.0
08/05:00am 16.7 14.6 12.3 75 2.4 SSE 15 24 8 13 1021.7 1021.6 0.0
08/04:30am 16.5 13.5 11.9 74 2.5 S 19 28 10 15 1021.6 1021.5 0.0
08/04:00am 16.4 13.3 11.6 73 2.6 SSE 19 28 10 15 1021.5 1021.4 0.0
08/03:30am 16.7 13.7 12.0 74 2.6 S 19 26 10 14 1021.6 1021.5 0.0
08/03:00am 16.8 14.6 12.1 74 2.6 SSE 15 20 8 11 1021.6 1021.5 0.0
08/02:30am 16.7 14.5 12.0 74 2.6 SSE 15 22 8 12 1021.7 1021.6 0.0
08/02:00am 16.8 14.2 11.9 73 2.7 SSE 17 24 9 13 1021.8 1021.7 0.0
08/01:30am 17.0 13.9 12.3 74 2.6 SSE 20 28 11 15 1021.9 1021.8 0.0
08/01:00am 17.0 13.9 12.1 73 2.7 S 20 30 11 16 1022.0 1021.9 0.0
08/12:30am 17.3 14.3 12.6 74 2.6 SSE 20 26 11 14 1021.9 1021.8 0.0
08/12:00am 17.3 13.5 12.4 73 2.7 S 24 33 13 18 1021.8 1021.7 0.0
 
Date/Time
EDT
Temp
°C
App
Temp
°C
Dew
Point
Rel
Hum
%
Delta-T
°C
Wind Press
QNH
hPa
Press
MSL
hPa
Rain
since 9 am
mm
Dir
 
Spd
km/h
Gust
km/h
Spd
kts
Gust
kts
07/11:30pm 17.2 13.4 12.5 74 2.6 S 24 32 13 17 1021.9 1021.8 0.0
07/11:00pm 17.5 14.1 13.6 78 2.2 S 24 32 13 17 1021.8 1021.7 0.0
07/10:30pm 17.4 14.0 13.7 79 2.1 SSE 24 30 13 16 1021.7 1021.6 0.0
07/10:00pm 17.3 13.5 13.6 79 2.1 S 26 35 14 19 1021.4 1021.3 0.0

Other Formats:

Comma delimited format used in spreadsheet applications
http://www.bom.gov.au/fwo/IDV60801/IDV60801.94826.axf

JavaScript Object Notation format (JSON) in row-major order
http://www.bom.gov.au/fwo/IDV60801/IDV60801.94826.json